Home > Products > Valid Products > TAF

000
FTUS46 KHNX 250500
TAFFAT
TAF
KFAT 250540Z 2506/2606 31009KT P6SM SCT120 BKN200
     FM251200 32010KT P6SM BKN050 OVC100
      TEMPO 2512/2516 -RA
     FM251600 32008KT P6SM -SHRA SCT035 OVC050 PROB30 2520/2524
      -TSRA BKN035CB=



000
FTUS46 KHNX 250500
TAFBFL
TAF
KBFL 250540Z 2506/2606 35006KT P6SM BKN200
     FM251200 32006KT P6SM BKN100 OVC200
      TEMPO 2520/2523 -SHRA
     FM252300 32010G18KT P6SM BKN050 OVC100 PROB30 2600/2606 -SHRA
      BKN050=



000
FTUS46 KHNX 250500
TAFMCE
TAF
KMCE 250540Z 2506/2606 33010KT P6SM SCT070 BKN100
     FM251400 32010KT P6SM -RA BKN035 OVC050
     FM251800 33008KT P6SM -SHRA SCT035 BKN050 PROB30 2520/2524 5SM
      -TSRA BKN035CB
     FM260300 30010KT P6SM BKN050=



000
FTUS46 KHNX 242300
TAFMCE
TAF
KMCE 242320Z 2500/2524 31012G17KT P6SM SCT090 BKN200
     FM250300 30008KT P6SM SCT090 BKN120
     FM250600 30010KT P6SM SCT070 BKN100
     FM251400 31010KT P6SM -RA BKN035 OVC050=



000
FTUS46 KHNX 242300
TAFBFL
TAF
KBFL 242320Z 2500/2524 32009KT P6SM FEW200
     FM250300 35011KT P6SM SCT200
     FM251200 32006KT P6SM BKN100 OVC200=



000
FTUS46 KHNX 242300
TAFFAT
TAF
KFAT 242320Z 2500/2524 31012KT P6SM FEW120 SCT200
     FM251200 32010KT P6SM BKN050 OVC100
     FM251700 32008KT 6SM -RA SCT035 OVC050=



000
FTUS46 KHNX 241700
TAFFAT
TAF
KFAT 241729Z 2418/2518 30007KT P6SM FEW200
     FM250200 31012KT P6SM SCT150 BKN200
     FM250800 32008KT P6SM BKN120
     FM251400 32010KT P6SM SCT050 OVC090 PROB30 2516/2518 6SM -RA
      BKN050=



000
FTUS46 KHNX 241700
TAFBFL
TAF
KBFL 241729Z 2418/2518 VRB03KT P6SM SKC
     FM242100 32008KT P6SM FEW200
     FM250300 35007KT P6SM SCT200
     FM251200 32007KT P6SM BKN120 OVC200=



000
FTUS46 KHNX 241700
TAFMCE
TAF
KMCE 241729Z 2418/2518 33010G15KT P6SM SCT200
     FM242200 33015G21KT P6SM BKN200
     FM250700 33010KT P6SM BKN100
     FM251400 32010KT P6SM BKN050 OVC090
      TEMPO 2514/2518 4SM -RA BKN035=



000
FTUS46 KHNX 241100
TAFFAT
TAF
KFAT 241125Z 2412/2512 30007KT P6SM FEW200
     FM250000 31012KT P6SM SCT150 BKN200=



000
FTUS46 KHNX 241100
TAFBFL
TAF
KBFL 241125Z 2412/2512 VRB03KT P6SM FEW200
     FM242100 32008KT P6SM SCT200=



000
FTUS46 KHNX 241100
TAFMCE
TAF
KMCE 241125Z 2412/2512 33005KT P6SM FEW200
     FM241700 33010G15KT P6SM SCT200
     FM242200 33015G21KT P6SM BKN200
     FM250700 33010KT P6SM BKN100=



000
FTUS46 KHNX 240500
TAFFAT
TAF
KFAT 240525Z 2406/2506 30010KT P6SM FEW200=



000
FTUS46 KHNX 240500
TAFBFL
TAF
KBFL 240525Z 2406/2506 35006KT P6SM FEW200=



000
FTUS46 KHNX 240500
TAFMCE
TAF
KMCE 240525Z 2406/2506 32007KT P6SM FEW200=



000
FTUS46 KHNX 232300
TAFFAT
TAF
KFAT 232334Z 2400/2424 31013G17KT P6SM FEW090 SCT200 BKN250=



000
FTUS46 KHNX 232300
TAFBFL
TAF
KBFL 232334Z 2400/2424 00000KT P6SM SKC
     FM240300 VRB04KT P6SM FEW120=



000
FTUS46 KHNX 232300
TAFMCE
TAF
KMCE 232334Z 2400/2424 33015G24KT P6SM SKC=



000
FTUS46 KHNX 231700
TAFBFL
TAF
KBFL 231720Z 2318/2418 32010KT P6SM SCT120
     FM240300 VRB04KT P6SM FEW120=



000
FTUS46 KHNX 231700
TAFFAT
TAF
KFAT 231720Z 2318/2418 32007KT P6SM FEW200=



000
FTUS46 KHNX 231700
TAFMCE
TAF
KMCE 231720Z 2318/2418 33008KT P6SM SCT200=



000
FTUS46 KHNX 231100
TAFMCE
TAF
KMCE 231120Z 2312/2412 34008KT P6SM SCT200
     FM231900 31012G18KT P6SM FEW200
     FM240600 33007KT P6SM SKC=



000
FTUS46 KHNX 231100
TAFFAT
TAF
KFAT 231120Z 2312/2412 32006KT P6SM FEW200
     FM232000 33012KT P6SM FEW200=



000
FTUS46 KHNX 231100
TAFBFL
TAF
KBFL 231120Z 2312/2412 34010KT P6SM SCT120=



000
FTUS46 KHNX 230500
TAFFAT
TAF
KFAT 230520Z 2306/2406 31010KT P6SM SCT120
     FM231000 32006KT P6SM FEW200
     FM232000 33012KT P6SM FEW200=



000
FTUS46 KHNX 230500
TAFBFL
TAF
KBFL 230520Z 2306/2406 34010KT P6SM SCT120=



000
FTUS46 KHNX 230500
TAFMCE
TAF
KMCE 230520Z 2306/2406 33012KT P6SM SCT120
     FM231100 32008KT P6SM SCT200
     FM231900 31012G18KT P6SM FEW200=



000
FTUS46 KHNX 222300
TAFFAT
TAF
KFAT 222324Z 2300/2324 30012G18KT P6SM FEW050
     FM231000 32008KT P6SM FEW200=



000
FTUS46 KHNX 222300
TAFMCE
TAF
KMCE 222324Z 2300/2324 35010G15KT P6SM SKC
     FM231100 32009KT P6SM SCT200
     FM231700 34012G18KT P6SM FEW200=



000
FTUS46 KHNX 222300
TAFBFL
TAF
KBFL 222324Z 2300/2324 30012G18KT P6SM SKC
     FM230300 33009KT P6SM FEW200=



000
FTUS46 KHNX 221700
TAFBFL
TAF
KBFL 221720Z 2218/2318 33016KT P6SM SCT040
     FM222200 32017G29KT 3SM BLDU SCT040
     FM230300 34010KT P6SM SKC
     FM230800 34005KT P6SM SKC=



000
FTUS46 KHNX 221700
TAFFAT
TAF
KFAT 221720Z 2218/2318 31015G25KT 3SM BLDU SCT040
     FM230300 32010KT P6SM SKC=



000
FTUS46 KHNX 221700
TAFMCE
TAF
KMCE 221720Z 2218/2318 34015G25KT 3SM BLDU SCT040
     FM230300 32010KT P6SM SKC=



000
FTUS46 KHNX 221300 AAB
TAFMCE
TAF AMD
KMCE 221349Z 2214/2312 30012G22KT P6SM BKN030 OVC150
     FM221700 32017G27KT 3SM BLDU SCT060
     FM230300 32010KT P6SM SKC=



000
FTUS46 KHNX 221300 AAA
TAFMCE
TAF AMD
KMCE 221305Z 2213/2312 32012G22KT P6SM BKN030 OVC150
     FM221700 32017G27KT 3SM BLDU SCT060
     FM230300 32010KT P6SM SKC=



000
FTUS46 KHNX 221100
TAFBFL
TAF
KBFL 221131Z 2212/2312 33008KT P6SM BKN150
     FM221500 34013G23KT P6SM SCT060
     FM222200 32017G29KT 3SM BLDU SCT060
     FM230300 34010KT P6SM SKC=



000
FTUS46 KHNX 221100
TAFMCE
TAF
KMCE 221131Z 2212/2312 32012G22KT P6SM SCT060 BKN150
     FM221700 32017G27KT 3SM BLDU SCT060
     FM230300 32010KT P6SM SKC=



000
FTUS46 KHNX 221100
TAFFAT
TAF
KFAT 221131Z 2212/2312 32015G25KT P6SM SCT060 BKN130
     FM221800 32017G27KT 3SM BLDU SCT060
     FM230300 32011KT P6SM SKC=



    US Dept of Commerce
    National Oceanic and Atmospheric Administration
    National Weather Service
    1325 East West Highway
    Silver Spring, MD 20910
    Page Author: NWS Internet Services Team
Disclaimer
Information Quality
Credits
Glossary
Privacy Policy
Freedom of Information Act (FOIA)
About Us
Career Opportunities